createdAt,value
2023-11-03T00:02:09.485Z,2.20
2023-11-03T00:04:40.303Z,2.00
2023-11-03T00:07:15.202Z,2.17
2023-11-03T00:09:42.163Z,2.77
2023-11-03T00:12:09.138Z,2.53
2023-11-03T00:14:39.182Z,2.30
2023-11-03T00:17:07.930Z,2.33
2023-11-03T00:19:35.326Z,2.20
2023-11-03T00:22:02.238Z,2.40
2023-11-03T00:24:30.156Z,2.50
2023-11-03T00:26:57.652Z,2.47
2023-11-03T00:29:25.607Z,2.60
2023-11-03T00:31:52.505Z,2.60
2023-11-03T00:34:19.460Z,2.17
2023-11-03T00:36:47.391Z,2.30
2023-11-03T00:39:15.849Z,2.30
2023-11-03T00:41:43.460Z,2.80
2023-11-03T00:44:12.525Z,2.30
2023-11-03T00:46:39.878Z,2.10
2023-11-03T00:49:11.191Z,2.23
2023-11-03T00:51:38.367Z,2.50
2023-11-03T00:54:08.334Z,2.70
2023-11-03T00:56:37.467Z,2.20
2023-11-03T00:59:04.281Z,2.47
2023-11-03T01:01:31.175Z,2.10
2023-11-03T01:03:58.156Z,1.80
2023-11-03T01:06:25.486Z,2.43
2023-11-03T01:08:53.171Z,2.47
2023-11-03T01:11:25.050Z,2.03
2023-11-03T01:13:52.277Z,2.67
2023-11-03T01:16:23.984Z,1.93
2023-11-03T01:18:51.082Z,2.17
2023-11-03T01:21:19.794Z,2.00
2023-11-03T01:23:50.492Z,2.00
2023-11-03T01:26:18.086Z,2.23
2023-11-03T01:28:45.320Z,2.27
2023-11-03T01:31:12.926Z,2.40
2023-11-03T01:33:42.798Z,2.73
2023-11-03T01:36:10.245Z,2.40
2023-11-03T01:38:40.100Z,2.43
2023-11-03T01:41:09.211Z,2.20
2023-11-03T01:43:37.288Z,2.37
2023-11-03T01:46:04.468Z,2.67
2023-11-03T01:48:35.476Z,2.07
2023-11-03T01:51:03.685Z,1.70
2023-11-03T01:53:32.890Z,1.80
2023-11-03T01:56:01.451Z,1.83
2023-11-03T01:58:29.123Z,1.97
2023-11-03T02:00:56.195Z,2.67
2023-11-03T02:03:23.377Z,2.00
2023-11-03T02:05:50.366Z,2.03
2023-11-03T02:08:18.581Z,2.17
2023-11-03T02:10:45.839Z,2.27
2023-11-03T02:13:12.737Z,2.20
2023-11-03T02:15:40.636Z,2.47
2023-11-03T02:18:09.670Z,1.93
2023-11-03T02:20:36.639Z,2.13
2023-11-03T02:23:05.489Z,2.10
2023-11-03T02:25:32.606Z,2.40
2023-11-03T02:27:59.582Z,3.70
2023-11-03T02:30:27.184Z,2.30
2023-11-03T02:32:54.480Z,2.20
2023-11-03T02:35:21.429Z,2.00
2023-11-03T02:37:48.374Z,1.70
2023-11-03T02:40:15.964Z,2.03
2023-11-03T02:42:42.860Z,2.17
2023-11-03T02:45:11.448Z,2.03
2023-11-03T02:47:38.547Z,2.07
2023-11-03T02:50:06.438Z,2.00
2023-11-03T02:52:33.570Z,1.93
2023-11-03T02:55:00.374Z,2.27
2023-11-03T02:57:27.285Z,1.93
2023-11-03T02:59:54.076Z,2.23
2023-11-03T03:02:22.370Z,2.20
2023-11-03T03:04:49.288Z,2.07
2023-11-03T03:07:16.104Z,2.10
2023-11-03T03:09:43.592Z,2.40
2023-11-03T03:12:10.890Z,2.20
2023-11-03T03:14:38.648Z,2.00
2023-11-03T03:17:05.399Z,2.00
2023-11-03T03:19:32.273Z,1.70
2023-11-03T03:21:59.126Z,2.20
2023-11-03T03:24:25.942Z,2.37
2023-11-03T03:26:53.290Z,1.93
2023-11-03T03:29:20.067Z,2.10
2023-11-03T03:31:46.953Z,1.80
2023-11-03T03:34:14.021Z,2.00
2023-11-03T03:36:40.933Z,1.93
2023-11-03T03:39:07.751Z,2.10
2023-11-03T03:41:34.666Z,2.50
2023-11-03T03:44:01.693Z,2.20
2023-11-03T03:46:29.205Z,2.10
2023-11-03T03:48:56.991Z,1.83
2023-11-03T03:51:24.023Z,2.13
2023-11-03T03:53:51.262Z,2.50
2023-11-03T03:56:18.485Z,2.10
2023-11-03T03:58:45.200Z,2.20
2023-11-03T04:01:11.985Z,2.50
2023-11-03T04:03:38.793Z,2.27
2023-11-03T04:06:05.870Z,2.27
2023-11-03T04:08:32.700Z,2.37
2023-11-03T04:11:01.760Z,2.17
2023-11-03T04:13:28.540Z,1.80
2023-11-03T04:15:55.455Z,2.10
2023-11-03T04:18:23.479Z,2.23
2023-11-03T04:20:50.443Z,2.43
2023-11-03T04:23:17.760Z,2.10
2023-11-03T04:25:44.647Z,2.70
2023-11-03T04:28:11.377Z,2.50
2023-11-03T04:30:38.181Z,2.77
2023-11-03T04:33:05.269Z,3.00
2023-11-03T04:35:32.434Z,2.70
2023-11-03T04:37:59.569Z,2.57
2023-11-03T04:40:26.509Z,2.03
2023-11-03T04:42:53.685Z,2.40
2023-11-03T04:45:21.560Z,2.50
2023-11-03T04:47:50.249Z,2.40
2023-11-03T04:50:17.984Z,2.60
2023-11-03T04:52:44.839Z,2.30
2023-11-03T04:55:11.729Z,2.37
2023-11-03T04:57:39.276Z,2.23
2023-11-03T05:00:13.519Z,2.83
2023-11-03T05:02:41.073Z,2.80
2023-11-03T05:05:08.452Z,3.00
2023-11-03T05:07:38.492Z,2.30
2023-11-03T05:10:06.757Z,2.60
2023-11-03T05:12:34.325Z,3.20
2023-11-03T05:15:01.242Z,2.73
2023-11-03T05:17:28.141Z,2.70
2023-11-03T05:19:55.051Z,3.00
2023-11-03T05:22:21.803Z,2.70
2023-11-03T05:24:48.744Z,3.37
2023-11-03T05:27:15.573Z,2.57
2023-11-03T05:29:42.354Z,3.07
2023-11-03T05:32:10.310Z,2.67
2023-11-03T05:34:37.315Z,2.47
2023-11-03T05:37:04.656Z,2.60
2023-11-03T05:39:33.610Z,2.77
2023-11-03T05:42:00.459Z,2.80
2023-11-03T05:44:27.628Z,2.73
2023-11-03T05:46:54.858Z,2.90
2023-11-03T05:49:21.778Z,2.40
2023-11-03T05:51:49.756Z,2.50
2023-11-03T05:54:17.142Z,3.13
2023-11-03T05:56:44.263Z,2.50
2023-11-03T05:59:12.165Z,3.00
2023-11-03T06:01:39.564Z,2.33
2023-11-03T06:04:06.861Z,3.83
2023-11-03T06:06:34.057Z,2.90
2023-11-03T06:09:00.990Z,2.77
2023-11-03T06:11:28.436Z,2.57
2023-11-03T06:14:01.686Z,3.10
2023-11-03T06:16:31.099Z,2.73
2023-11-03T06:19:06.221Z,2.70
2023-11-03T06:21:37.002Z,2.50
2023-11-03T06:24:04.303Z,3.10
2023-11-03T06:26:31.550Z,2.80
2023-11-03T06:28:58.398Z,3.80
2023-11-03T06:31:25.481Z,3.10
2023-11-03T06:33:53.076Z,3.10
2023-11-03T06:36:20.450Z,4.10
2023-11-03T06:38:48.342Z,2.97
2023-11-03T06:41:16.696Z,3.17
2023-11-03T06:43:47.333Z,2.73
2023-11-03T06:46:15.886Z,2.30
2023-11-03T06:48:44.335Z,3.13
2023-11-03T06:51:11.916Z,2.90
2023-11-03T06:53:39.136Z,2.23
2023-11-03T06:56:06.511Z,3.10
2023-11-03T06:58:36.876Z,2.20
2023-11-03T07:01:06.116Z,2.50
2023-11-03T07:03:33.932Z,2.63
2023-11-03T07:06:05.462Z,2.40
2023-11-03T07:08:32.540Z,2.93
2023-11-03T07:10:59.721Z,3.03
2023-11-03T07:13:29.062Z,3.00
2023-11-03T07:15:56.468Z,3.10
2023-11-03T07:18:23.535Z,2.57
2023-11-03T07:20:50.411Z,3.10
2023-11-03T07:23:18.605Z,2.93
2023-11-03T07:25:47.317Z,2.60
2023-11-03T07:28:14.256Z,2.70
2023-11-03T07:30:41.213Z,2.80
2023-11-03T07:33:08.834Z,2.93
2023-11-03T07:35:35.649Z,2.30
2023-11-03T07:38:04.752Z,2.67
2023-11-03T07:40:32.489Z,3.10
2023-11-03T07:42:59.303Z,2.60
2023-11-03T07:45:29.946Z,2.43
2023-11-03T07:48:00.800Z,3.53
2023-11-03T07:50:27.639Z,2.80
2023-11-03T07:52:54.393Z,2.93
2023-11-03T07:55:21.824Z,2.90
2023-11-03T07:57:49.912Z,2.87
2023-11-03T08:00:18.036Z,2.40
2023-11-03T08:02:45.408Z,3.27
2023-11-03T08:05:13.374Z,3.10
2023-11-03T08:07:40.528Z,3.13
2023-11-03T08:10:12.190Z,2.80
2023-11-03T08:12:40.020Z,2.70
2023-11-03T08:15:14.798Z,2.87
2023-11-03T08:17:45.565Z,3.17
2023-11-03T08:20:14.576Z,2.40
2023-11-03T08:22:41.733Z,3.10
2023-11-03T08:25:08.907Z,2.73
2023-11-03T08:27:36.661Z,2.80
2023-11-03T08:30:05.449Z,2.90
2023-11-03T08:32:32.664Z,2.60
2023-11-03T08:35:00.298Z,2.87
2023-11-03T08:37:29.582Z,3.33
2023-11-03T08:39:56.602Z,3.30
2023-11-03T08:42:23.456Z,3.10
2023-11-03T08:44:50.312Z,3.00
2023-11-03T08:47:20.289Z,2.73
2023-11-03T08:49:50.081Z,3.07
2023-11-03T08:52:17.041Z,2.40
2023-11-03T08:54:43.911Z,3.03
2023-11-03T08:57:10.874Z,2.90
2023-11-03T08:59:40.608Z,2.70
2023-11-03T09:02:07.539Z,2.43
2023-11-03T09:04:34.841Z,2.30
2023-11-03T09:07:04.754Z,2.20
2023-11-03T09:09:31.674Z,2.80
2023-11-03T09:11:58.769Z,2.80
2023-11-03T09:14:26.563Z,3.00
2023-11-03T09:16:54.946Z,2.57
2023-11-03T09:19:21.896Z,2.80
2023-11-03T09:21:50.425Z,2.60
2023-11-03T09:24:17.504Z,2.43
2023-11-03T09:29:12.456Z,2.57
2023-11-03T09:31:39.240Z,2.87
2023-11-03T09:34:06.626Z,2.60
2023-11-03T09:36:34.007Z,2.53
2023-11-03T09:39:00.881Z,3.50
2023-11-03T09:41:30.559Z,2.80
2023-11-03T09:43:58.184Z,3.20
2023-11-03T09:46:25.900Z,2.93
2023-11-03T09:48:54.067Z,2.90
2023-11-03T09:51:22.628Z,2.57
2023-11-03T09:53:54.558Z,2.63
2023-11-03T09:56:23.496Z,2.80
2023-11-03T09:58:50.872Z,3.50
2023-11-03T10:01:18.320Z,3.37
2023-11-03T10:03:58.887Z,2.17
2023-11-03T10:06:28.095Z,3.03
2023-11-03T10:08:59.784Z,2.73
2023-11-03T10:11:27.866Z,2.47
2023-11-03T10:13:55.346Z,2.97
2023-11-03T10:16:28.173Z,3.00
2023-11-03T10:19:05.332Z,1.97
2023-11-03T10:21:32.554Z,3.00
2023-11-03T10:24:01.002Z,2.40
2023-11-03T10:26:29.512Z,2.47
2023-11-03T10:28:56.632Z,2.73
2023-11-03T10:31:23.981Z,2.97
2023-11-03T10:33:52.369Z,2.43
2023-11-03T10:36:20.628Z,2.93
2023-11-03T10:38:56.842Z,2.50
2023-11-03T10:41:29.207Z,2.97
2023-11-03T10:43:59.978Z,2.50
2023-11-03T10:46:43.357Z,2.60
2023-11-03T10:49:20.226Z,2.80
2023-11-03T10:52:13.615Z,2.63
2023-11-03T10:55:08.817Z,2.47
2023-11-03T10:57:41.193Z,2.53
2023-11-03T11:00:31.377Z,2.77
2023-11-03T11:03:01.385Z,3.30
2023-11-03T11:05:42.853Z,2.83
2023-11-03T11:08:12.296Z,2.73
2023-11-03T11:10:43.441Z,2.30
2023-11-03T11:13:21.171Z,2.70
2023-11-03T11:16:04.501Z,3.53
2023-11-03T11:18:43.449Z,2.40
2023-11-03T11:21:12.226Z,1.97
2023-11-03T11:23:40.601Z,2.70
2023-11-03T11:26:31.648Z,2.50
2023-11-03T11:29:02.849Z,3.80
2023-11-03T11:31:30.266Z,2.97
2023-11-03T11:34:08.257Z,3.20
2023-11-03T11:36:37.054Z,2.47
2023-11-03T11:39:15.409Z,2.90
2023-11-03T11:41:46.346Z,2.27
2023-11-03T11:44:17.255Z,3.17
2023-11-03T11:46:44.227Z,3.10
2023-11-03T11:49:14.254Z,2.93
2023-11-03T11:51:42.159Z,3.00
2023-11-03T11:54:11.745Z,3.20
2023-11-03T11:56:38.935Z,3.27
2023-11-03T11:59:10.954Z,2.50
2023-11-03T12:01:38.281Z,2.80
2023-11-03T12:04:05.725Z,2.73
2023-11-03T12:06:32.700Z,2.43
2023-11-03T12:08:59.610Z,3.90
2023-11-03T12:11:27.619Z,3.30
2023-11-03T12:13:54.923Z,2.77
2023-11-03T12:16:23.141Z,2.97
2023-11-03T12:18:55.108Z,3.10
2023-11-03T12:21:28.158Z,2.93
2023-11-03T12:24:01.345Z,2.87
2023-11-03T12:26:29.426Z,2.50
2023-11-03T12:29:41.793Z,3.00
2023-11-03T12:32:10.007Z,2.77
2023-11-03T12:34:40.325Z,2.40
2023-11-03T12:37:08.646Z,3.40
2023-11-03T12:39:52.867Z,2.70
2023-11-03T12:42:23.919Z,2.87
2023-11-03T12:44:57.310Z,3.43
2023-11-03T12:47:47.143Z,3.33
2023-11-03T12:50:19.015Z,2.87
2023-11-03T12:53:04.955Z,3.53
2023-11-03T12:55:35.834Z,2.47
2023-11-03T12:58:11.337Z,2.80
2023-11-03T13:00:38.786Z,2.47
2023-11-03T13:03:06.438Z,3.07
2023-11-03T13:05:34.704Z,3.23
2023-11-03T13:08:04.661Z,3.50
2023-11-03T13:10:32.512Z,2.97
2023-11-03T13:13:01.360Z,3.00
2023-11-03T13:15:29.261Z,3.07
2023-11-03T13:17:56.916Z,2.70
2023-11-03T13:20:25.962Z,2.13
2023-11-03T13:23:00.329Z,3.77
2023-11-03T13:25:29.312Z,3.27
2023-11-03T13:27:56.520Z,2.70
2023-11-03T13:30:24.305Z,2.40
2023-11-03T13:32:55.438Z,2.63
2023-11-03T13:35:24.440Z,2.33
2023-11-03T13:37:52.548Z,2.77
2023-11-03T13:40:22.723Z,2.80
2023-11-03T13:42:51.869Z,2.93
2023-11-03T13:45:18.936Z,2.53
2023-11-03T13:47:47.993Z,3.20
2023-11-03T13:50:21.472Z,2.60
2023-11-03T13:52:51.318Z,2.40
2023-11-03T13:55:22.869Z,2.63
2023-11-03T13:57:52.423Z,3.67
2023-11-03T14:00:19.682Z,2.53
2023-11-03T14:02:46.720Z,2.60
2023-11-03T14:05:13.698Z,2.60
2023-11-03T14:07:41.435Z,3.10
2023-11-03T14:10:15.509Z,2.90
2023-11-03T14:12:44.475Z,2.50
2023-11-03T14:15:12.330Z,2.77
2023-11-03T14:17:40.866Z,3.13
2023-11-03T14:20:10.544Z,2.50
2023-11-03T14:22:37.844Z,2.40
2023-11-03T14:25:08.222Z,2.40
2023-11-03T14:27:40.475Z,3.03
2023-11-03T14:30:13.889Z,2.53
2023-11-03T14:32:41.732Z,2.63
2023-11-03T14:35:13.286Z,3.37
2023-11-03T14:37:42.729Z,2.50
2023-11-03T14:40:15.834Z,2.63
2023-11-03T14:42:45.874Z,3.00
2023-11-03T14:45:12.695Z,2.70
2023-11-03T14:47:45.310Z,2.60
2023-11-03T14:50:14.231Z,2.63
2023-11-03T14:52:56.076Z,2.27
2023-11-03T14:55:29.625Z,2.57
2023-11-03T14:57:56.620Z,2.63
2023-11-03T15:00:29.801Z,2.30
2023-11-03T15:02:58.480Z,3.27
2023-11-03T15:05:25.932Z,2.77
2023-11-03T15:07:53.014Z,3.07
2023-11-03T15:10:21.086Z,2.57
2023-11-03T15:12:47.827Z,2.63
2023-11-03T15:15:14.986Z,2.60
2023-11-03T15:17:42.500Z,2.90
2023-11-03T15:20:15.864Z,2.87
2023-11-03T15:22:46.582Z,2.10
2023-11-03T15:25:24.742Z,2.30
2023-11-03T15:28:02.095Z,3.13
2023-11-03T15:30:36.950Z,2.47
2023-11-03T15:33:52.915Z,2.60
2023-11-03T15:36:13.202Z,3.10
2023-11-03T15:38:58.575Z,2.70
2023-11-03T15:41:41.430Z,2.10
2023-11-03T15:44:21.653Z,2.80
2023-11-03T15:46:51.481Z,3.40
2023-11-03T15:52:31.313Z,2.90
2023-11-03T15:59:05.218Z,3.03
2023-11-03T16:01:32.809Z,2.87
2023-11-03T16:03:59.779Z,3.17
2023-11-03T16:06:28.317Z,3.13
2023-11-03T16:08:55.302Z,3.63
2023-11-03T16:11:22.233Z,2.60
2023-11-03T16:13:51.958Z,3.93
2023-11-03T16:16:18.800Z,2.83
2023-11-03T16:18:46.421Z,3.37
2023-11-03T16:21:13.952Z,2.97
2023-11-03T16:23:40.772Z,3.37
2023-11-03T16:26:09.233Z,3.43
2023-11-03T16:28:36.164Z,3.67
2023-11-03T16:31:03.104Z,3.50
2023-11-03T16:33:29.978Z,3.13
2023-11-03T16:35:58.114Z,2.63
2023-11-03T16:38:25.191Z,2.93
2023-11-03T16:40:52.098Z,4.87
2023-11-03T16:43:19.232Z,5.27
2023-11-03T16:45:46.107Z,8.23
2023-11-03T16:48:20.628Z,6.60
2023-11-03T16:50:53.100Z,5.80
2023-11-03T16:53:19.886Z,5.20
2023-11-03T16:55:51.276Z,4.40
2023-11-03T16:58:19.449Z,4.70
2023-11-03T17:03:40.387Z,4.53
2023-11-03T17:06:07.838Z,3.70
2023-11-03T17:08:34.708Z,6.30
2023-11-03T17:11:02.258Z,5.70
2023-11-03T17:13:29.553Z,5.37
2023-11-03T17:15:56.408Z,4.90
2023-11-03T17:18:23.769Z,3.40
2023-11-03T17:20:50.737Z,3.60
2023-11-03T17:23:17.970Z,3.17
2023-11-03T17:25:45.588Z,3.50
2023-11-03T17:28:14.011Z,3.30
2023-11-03T17:30:41.079Z,3.50
2023-11-03T17:33:11.496Z,3.57
2023-11-03T17:35:39.111Z,3.57
2023-11-03T17:38:06.808Z,3.77
2023-11-03T17:40:34.692Z,4.50
2023-11-03T17:43:01.691Z,3.87
2023-11-03T17:45:28.770Z,3.27
2023-11-03T17:47:56.225Z,3.23
2023-11-03T17:50:23.211Z,3.20
2023-11-03T17:52:51.823Z,3.80
2023-11-03T17:55:22.785Z,3.10
2023-11-03T17:57:51.965Z,3.63
2023-11-03T18:00:20.169Z,3.93
2023-11-03T18:02:47.436Z,3.03
2023-11-03T18:05:14.829Z,3.83
2023-11-03T18:07:42.089Z,3.30
2023-11-03T18:10:13.638Z,4.30
2023-11-03T18:12:41.649Z,3.97
2023-11-03T18:15:12.077Z,3.87
2023-11-03T18:17:40.126Z,4.00
2023-11-03T18:20:12.964Z,4.30
2023-11-03T18:22:44.777Z,5.17
2023-11-03T18:25:12.559Z,4.50
2023-11-03T18:27:43.227Z,3.90
2023-11-03T18:30:11.718Z,4.10
2023-11-03T18:32:40.161Z,3.90
2023-11-03T18:35:08.810Z,4.23
2023-11-03T18:37:39.040Z,4.03
2023-11-03T18:40:08.531Z,3.47
2023-11-03T18:42:35.797Z,4.43
2023-11-03T18:45:03.288Z,3.90
2023-11-03T18:47:30.827Z,3.73
2023-11-03T18:52:32.009Z,2.80
2023-11-03T18:55:56.697Z,3.60
2023-11-03T18:58:31.258Z,3.53
2023-11-03T19:07:09.433Z,3.70
2023-11-03T19:08:24.290Z,3.70
2023-11-03T19:10:52.266Z,3.57
2023-11-03T19:13:19.690Z,3.40
2023-11-03T19:15:46.658Z,3.53
2023-11-03T19:18:14.072Z,4.03
2023-11-03T19:20:41.321Z,3.30
2023-11-03T19:23:08.680Z,2.97
2023-11-03T19:25:39.156Z,3.77
2023-11-03T19:28:08.347Z,3.40
2023-11-03T19:30:37.149Z,4.23
2023-11-03T19:33:04.828Z,3.43
2023-11-03T19:35:33.583Z,3.30
2023-11-03T19:38:00.926Z,4.20
2023-11-03T19:40:28.218Z,3.27
2023-11-03T19:42:55.197Z,3.30
2023-11-03T19:45:22.198Z,3.57
2023-11-03T19:47:49.089Z,3.33
2023-11-03T19:50:16.680Z,3.23
2023-11-03T19:52:43.545Z,3.90
2023-11-03T19:55:10.721Z,3.37
2023-11-03T19:57:38.069Z,3.53
2023-11-03T20:00:08.604Z,3.80
2023-11-03T20:02:36.563Z,3.30
2023-11-03T20:05:05.524Z,3.30
2023-11-03T20:07:32.643Z,3.33
2023-11-03T20:10:00.604Z,3.80
2023-11-03T20:12:27.922Z,2.97
2023-11-03T20:14:54.745Z,3.07
2023-11-03T20:17:23.342Z,3.60
2023-11-03T20:19:51.266Z,3.57
2023-11-03T20:22:18.419Z,3.13
2023-11-03T20:24:45.304Z,3.47
2023-11-03T20:27:13.385Z,2.70
2023-11-03T20:29:42.682Z,3.63
2023-11-03T20:32:09.579Z,3.50
2023-11-03T20:34:36.924Z,3.00
2023-11-03T20:37:04.313Z,3.43
2023-11-03T20:39:31.192Z,2.70
2023-11-03T20:41:58.219Z,2.93
2023-11-03T20:44:27.484Z,2.90
2023-11-03T20:46:55.942Z,3.30
2023-11-03T20:49:22.850Z,3.10
2023-11-03T20:51:50.847Z,3.50
2023-11-03T20:54:19.130Z,3.50
2023-11-03T20:56:48.025Z,2.57
2023-11-03T20:59:15.252Z,3.10
2023-11-03T21:01:42.614Z,2.97
2023-11-03T21:04:09.561Z,3.47
2023-11-03T21:06:37.129Z,3.20
2023-11-03T21:09:05.198Z,3.23
2023-11-03T21:11:32.889Z,2.80
2023-11-03T21:14:00.147Z,3.03
2023-11-03T21:16:28.277Z,2.73
2023-11-03T21:18:55.359Z,2.90
2023-11-03T21:21:22.261Z,2.77
2023-11-03T21:23:51.493Z,2.60
2023-11-03T21:26:21.806Z,2.93
2023-11-03T21:28:48.886Z,2.17
2023-11-03T21:31:16.303Z,2.70
2023-11-03T21:33:45.028Z,3.10
2023-11-03T21:36:12.698Z,2.40
2023-11-03T21:38:39.640Z,3.00
2023-11-03T21:41:07.632Z,2.20
2023-11-03T21:43:35.074Z,2.40
2023-11-03T21:46:02.055Z,3.00
2023-11-03T21:48:29.572Z,2.43
2023-11-03T21:50:57.342Z,2.70
2023-11-03T21:53:24.245Z,2.97
2023-11-03T21:55:52.162Z,3.10
2023-11-03T21:58:20.216Z,2.70
2023-11-03T22:00:47.412Z,2.80
2023-11-03T22:03:14.367Z,2.80
2023-11-03T22:05:41.293Z,3.00
2023-11-03T22:08:15.545Z,2.70
2023-11-03T22:11:03.287Z,2.53
2023-11-03T22:13:32.797Z,2.53
2023-11-03T22:16:00.982Z,2.30
2023-11-03T22:18:28.245Z,2.73
2023-11-03T22:20:55.130Z,2.43
2023-11-03T22:23:22.041Z,2.80
2023-11-03T22:25:49.071Z,2.80
2023-11-03T22:28:16.437Z,2.53
2023-11-03T22:30:46.115Z,3.20
2023-11-03T22:33:13.450Z,2.70
2023-11-03T22:35:43.209Z,3.00
2023-11-03T22:38:11.468Z,2.27
2023-11-03T22:40:38.361Z,3.00
2023-11-03T22:43:05.491Z,2.70
2023-11-03T22:45:32.590Z,2.70
2023-11-03T22:48:02.433Z,2.90
2023-11-03T22:50:31.254Z,2.30
2023-11-03T22:52:58.008Z,2.83
2023-11-03T22:55:25.139Z,3.23
2023-11-03T22:57:52.062Z,2.60
2023-11-03T23:00:25.825Z,2.87
2023-11-03T23:02:52.750Z,2.53
2023-11-03T23:05:21.133Z,2.63
2023-11-03T23:07:48.620Z,2.60
2023-11-03T23:10:15.660Z,2.77
2023-11-03T23:12:43.048Z,2.73
2023-11-03T23:15:11.094Z,3.00
2023-11-03T23:17:39.263Z,2.60
2023-11-03T23:20:13.349Z,2.60
2023-11-03T23:22:40.894Z,2.90
2023-11-03T23:25:12.470Z,2.90
2023-11-03T23:27:43.338Z,2.30
2023-11-03T23:30:11.538Z,2.97
2023-11-03T23:32:38.476Z,2.60
2023-11-03T23:35:05.990Z,2.60
2023-11-03T23:37:33.278Z,3.43
2023-11-03T23:40:00.450Z,3.03
2023-11-03T23:42:27.424Z,3.07
2023-11-03T23:44:55.135Z,2.60
2023-11-03T23:47:22.947Z,3.30
2023-11-03T23:49:49.771Z,3.33
2023-11-03T23:52:16.538Z,3.60
2023-11-03T23:54:43.366Z,3.13
2023-11-03T23:57:10.305Z,3.10
2023-11-03T23:59:37.098Z,3.17
